Tuesday, January 22, 2019, 4:28 PM EST
Back to Local

KTHV, York Airport

Location: Spring Grove, PA, United States Lat: 39.917
Local Time: 4:28 PM EST (21:28 GMT) Lon: -76.883
Time Zone: US/Eastern Elev: 478 ft

Show me the last for .
Show Decoded

2019-01-22 15:53 METAR KTHV 222053Z AUTO 30003KT 10SM CLR M03/M13 A3058 RMK AO2 SLP367 T10331128
                 56022 =
2019-01-22 14:53 METAR KTHV 221953Z AUTO 33003KT 10SM CLR M03/M13 A3059 RMK AO2 SLP371 T10281128
                 =
2019-01-22 13:53 METAR KTHV 221853Z AUTO 00000KT 10SM CLR M03/M13 A3062 RMK AO2 SLP381 T10331133
                 =
2019-01-22 12:53 METAR KTHV 221753Z AUTO 00000KT 10SM CLR M05/M14 A3065 RMK AO2 SLP389 T10501144
                 11050 21139 58017 =
2019-01-22 11:53 METAR KTHV 221653Z AUTO 25004KT 10SM CLR M07/M14 A3068 RMK AO2 SLP401 T10671144
                 =
2019-01-22 10:53 METAR KTHV 221553Z AUTO 00000KT 10SM CLR M07/M16 A3070 RMK AO2 SLP407 T10721156
                 =
2019-01-22 09:53 METAR KTHV 221453Z AUTO VRB03KT 10SM CLR M08/M15 A3070 RMK AO2 SLP407 T10781150
                 51013 =
2019-01-22 08:53 METAR KTHV 221353Z AUTO 00000KT 10SM CLR M11/M16 A3069 RMK AO2 SLP405 T11061156
                 =
2019-01-22 07:53 METAR KTHV 221253Z AUTO 00000KT 10SM CLR M13/M16 A3067 RMK AO2 SLP399 T11281156
                 =
2019-01-22 06:53 METAR KTHV 221153Z AUTO 00000KT 10SM CLR M14/M17 A3066 RMK AO2 SLP396 T11391167
                 11117 21150 53013 =
2019-01-22 05:53 METAR KTHV 221053Z AUTO 30004KT 10SM CLR M14/M17 A3063 RMK AO2 SLP386 T11441167
                 =
2019-01-22 04:53 METAR KTHV 220953Z AUTO 00000KT 10SM CLR M14/M17 A3063 RMK AO2 SLP384 T11391172
                 =
2019-01-22 03:53 METAR KTHV 220853Z AUTO 00000KT 10SM CLR M12/M18 A3062 RMK AO2 SLP382 T11221178
                 51025 =
2019-01-22 02:53 METAR KTHV 220753Z AUTO 27003KT 10SM CLR M12/M18 A3061 RMK AO2 SLP377 T11171178
                 =
2019-01-22 01:53 METAR KTHV 220653Z AUTO 29006KT 10SM CLR M12/M18 A3056 RMK AO2 SLP363 T11221178
                 =
2019-01-22 00:53 METAR KTHV 220553Z AUTO 25003KT 10SM CLR M12/M18 A3054 RMK AO2 SLP356 T11171183
                 11100 21117 52009 =
2019-01-21 23:53 METAR KTHV 220453Z AUTO 29004KT 10SM CLR M12/M18 A3053 RMK AO2 SLP350 T11171183
                 410781139 =
2019-01-21 22:53 METAR KTHV 220353Z AUTO 30007KT 10SM CLR M11/M19 A3053 RMK AO2 SLP351 T11111189
                 =
2019-01-21 21:53 METAR KTHV 220253Z AUTO 30009KT 10SM CLR M11/M19 A3052 RMK AO2 SLP346 T11061194
                 51031 =
2019-01-21 20:53 METAR KTHV 220153Z AUTO 30006KT 10SM CLR M11/M19 A3049 RMK AO2 SLP337 T11061189
                 =
2019-01-21 19:53 METAR KTHV 220053Z AUTO 29006KT 10SM CLR M10/M19 A3046 RMK AO2 SLP328 T11001189
                 =
2019-01-21 18:53 METAR KTHV 212353Z AUTO 31010KT 10SM CLR M10/M19 A3042 RMK AO2 SLP316 T11001189
                 11078 21100 53029 =
2019-01-21 17:53 METAR KTHV 212253Z AUTO 30014G19KT 10SM CLR M09/M19 A3039 RMK AO2 SLP303
                 T10941194 =
2019-01-21 16:53 METAR KTHV 212153Z AUTO 30013G24KT 10SM CLR M09/M20 A3036 RMK AO2 PK WND
                 32026/2057 SLP294 T10891200 =

Support USWX by starting your Amazon purchase here.